x

La Mancha Beach, Mexico (lmbv4) Weather Station

5:00pm - Thu 19th Jan 2017 All times are CST. -6 hours from GMT.

  • Wind
    6mph, 8mph gusts
  • Air Temp 78°f
  • Sea Pressure 1008.4mb
  • La Mancha Beach, Mexico
  • La Mancha Beach, Mexico

More Historic Weather Station data

Upgrade to MSW Pro to gain access to the past 30 days of data for over 8000 Wavebouys and Weather Stations around the globe.

Join Pro

Comparision Forecast

View Surf forecast
   
Thu 01/19 5:00pm 6 8 mph 1008.4mb 78f
4:00pm 13 14 mph 1008.1mb 78f
3:00pm 15 17 mph 1008.1mb 78f
2:00pm 14 15 mph 1008.9mb 77f
1:00pm 14 16 mph 1010.5mb 78f
12:00pm 10 11 mph 1012.5mb 79f
11:00am 9 10 mph 1013.9mb 78f
10:00am 6 7 mph 1014.8mb 78f
9:00am  -  1 mph 1014.8mb 76f
8:00am 2 3 mph 1014.3mb 74f
7:00am 2
mph
1013.5mb 74f
6:00am 2
mph
1013mb 74f
5:00am 1 2 mph 1012.3mb 74f
4:00am 2
mph
1012.4mb 74f
3:00am 2 3 mph 1012.4mb 73f
2:00am 2
mph
1012.8mb 73f
1:00am 3 5 mph 1013.3mb 73f
12:00am 2 3 mph 1013.9mb 75f
Wed 01/18 11:00pm 2
mph
1014.1mb 75f
10:00pm 2 3 mph 1014.5mb 75f
9:00pm 2
mph
1014.2mb 75f
8:00pm 3
mph
1013.9mb 75f
7:00pm 2
mph
1013.4mb 76f
6:00pm 2 3 mph 1013.2mb 77f
5:00pm 6 9 mph 1012.7mb 77f
4:00pm 7 11 mph 1012.5mb 78f
3:00pm 10 14 mph 1012.7mb 78f
2:00pm 9 11 mph 1013.2mb 78f
1:00pm 7 8 mph 1014mb 78f
12:00pm 7 8 mph 1015.4mb 77f
11:00am 6
mph
1016.4mb 77f
10:00am 2 5 mph 1016.9mb 76f
9:00am 1 2 mph 1016.2mb 74f
8:00am 5
mph
1015.7mb 73f
7:00am  -  1 mph 1014.9mb 72f
6:00am 3 6 mph 1014.3mb 73f
5:00am 2 6 mph 1014.3mb 74f
4:00am 3 5 mph 1014.1mb 74f
3:00am 3 5 mph 1014.2mb 74f
2:00am 2 3 mph 1014.2mb 73f
1:00am 2 3 mph 1014.7mb 74f
12:00am 3 5 mph 1014.6mb 75f
Tue 01/17 11:00pm 8 10 mph 1015.1mb 76f
10:00pm  -  mph 1015.1mb 74f
9:00pm  -  1 mph 1014.6mb 75f
8:00pm 3 5 mph 1014mb 76f
7:00pm 3
mph
1013.5mb 77f
6:00pm 2
mph
1012.9mb 77f
5:00pm 6 7 mph 1012mb 78f
4:00pm 10 11 mph 1012mb 78f
3:00pm 10 11 mph 1011.9mb 78f
2:00pm 13 15 mph 1012.4mb 77f
1:00pm 11 13 mph 1013.4mb 78f
12:00pm 6 7 mph 1014.6mb 78f
11:00am 7 8 mph 1015.5mb 78f
10:00am 6 7 mph 1015.9mb 77f
9:00am 2
mph
1015.9mb 73f
8:00am 3 5 mph 1015.4mb 69f
7:00am 3
mph
1014.4mb 70f
6:00am  -  1 mph 1013.8mb 71f
5:00am 3
mph
1013.4mb 72f
4:00am  -  1 mph 1013.4mb 74f
3:00am 2 3 mph 1013.7mb 74f
2:00am 2 5 mph 1014.1mb 74f
1:00am 2
mph
1014.2mb 74f
12:00am  -  2 mph 1014.7mb 74f
Mon 01/16 11:00pm 2 3 mph 1014.9mb 75f
10:00pm 7 8 mph 1014.8mb 76f
9:00pm 7
mph
1014.1mb 76f
8:00pm  -  mph 1013.4mb 75f
7:00pm 1 2 mph 1012.8mb 76f
6:00pm 2 3 mph 1012.5mb 76f
5:00pm 5
mph
1012.1mb 76f
4:00pm 7 9 mph 1011.6mb 77f
3:00pm 11 13 mph 1011.5mb 76f
2:00pm 13 15 mph 1011.7mb 76f
1:00pm 14 15 mph 1012.7mb 76f
12:00pm 13 15 mph 1014.1mb 76f
11:00am 10 11 mph 1015mb 75f
10:00am 10 13 mph 1014.7mb 77f
9:00am 7 10 mph 1013.9mb 80f
8:00am 2 5 mph 1013.2mb 76f
7:00am 6 9 mph 1013.1mb 74f
6:00am 3 7 mph 1012.8mb 68f
5:00am 3 6 mph 1012.7mb 70f
4:00am 2 3 mph 1013mb 69f
3:00am 6 7 mph 1013mb 72f
2:00am 6 8 mph 1013.7mb 73f
1:00am 2 5 mph 1014.2mb 72f